Flugplatz Saarbrücken

Bericht für EDDR

vom 18.07. um 00:20 UTC

Wind 5 kt aus 60°

Sichtweite 10 km oder mehr

gute Sicht, keine Wolken < 5000 ft, keine CB, keine Wettererscheinungen (CAVOK)

Temperatur 16.0°C

Taupunkt 11.0°C

Luftfeuchtigkeit 72%

Luftdruck 1013 hPa

EDDR 180020Z 06005KT CAVOK 16/11 Q1013

Prognose für EDDR

vom 17.07. um 00:00 UTC

Zwischen 00:00 UTC und 00:00 UTC

variable Windrichtung mit 3 kt

Sichtweite 10 km oder mehr

keine signifikanten Wettererscheinungen

keine Wolken


Zwischen 00:00 und 00:00 UTC übergehend zu

Wind 6 kt aus 230°

Sichtweite 10 km oder mehr

keine signifikanten Wettererscheinungen

keine Wolken


Zwischen 00:00 UTC und 00:00 UTC zeitweise

Wind 15 kt aus 320° in Böen 25 kt

Regenschauer

aufgelockert bewölkt in 4500 ft


Zwischen 00:00 und 00:00 UTC übergehend zu

Wind 5 kt aus 290°

Sichtweite 10 km oder mehr

keine signifikanten Wettererscheinungen

keine Wolken


Zwischen 00:00 UTC und 00:00 UTC zeitweise mit einer Wahrscheinlichkeit von 30%

Wind 20 kt aus 330° in Böen 30 kt

Code: TSRA


Zwischen 00:00 und 00:00 UTC übergehend zu

variable Windrichtung mit 2 kt

Sichtweite 10 km oder mehr

keine signifikanten Wettererscheinungen

keine Wolken

TAF EDDR 172300Z 1800/1824 VRB03KT CAVOK BECMG 1811/1813 23006KT BECMG 1813/1815 29005KT TEMPO 1813/1817 32015G25KT SHRA SCT045CB PROB30 TEMPO 1816/1818 33020G30KT TSRA BECMG 1819/1821 VRB02KT
Impressum